createdAt,value
2022-10-15T00:01:58.388Z,10.32
2022-10-15T00:04:27.015Z,10.32
2022-10-15T00:06:58.352Z,10.24
2022-10-15T00:09:28.474Z,10.23
2022-10-15T00:11:56.997Z,10.27
2022-10-15T00:14:35.525Z,10.36
2022-10-15T00:17:04.164Z,10.55
2022-10-15T00:19:36.278Z,10.67
2022-10-15T00:22:07.010Z,10.43
2022-10-15T00:24:40.957Z,10.39
2022-10-15T00:27:09.823Z,10.50
2022-10-15T00:29:39.767Z,10.55
2022-10-15T00:32:10.782Z,10.43
2022-10-15T00:34:41.070Z,10.47
2022-10-15T00:37:09.935Z,10.54
2022-10-15T00:39:40.134Z,10.44
2022-10-15T00:42:09.134Z,10.49
2022-10-15T00:44:53.384Z,10.69
2022-10-15T00:47:26.375Z,10.41
2022-10-15T00:50:00.875Z,10.33
2022-10-15T00:52:36.026Z,10.47
2022-10-15T00:55:10.233Z,10.29
2022-10-15T00:57:40.184Z,10.11
2022-10-15T01:00:15.222Z,9.98
2022-10-15T01:02:44.063Z,10.00
2022-10-15T01:05:15.294Z,9.95
2022-10-15T01:07:43.779Z,10.00
2022-10-15T01:10:14.094Z,9.94
2022-10-15T01:12:54.553Z,9.99
2022-10-15T01:15:34.397Z,10.11
2022-10-15T01:18:06.679Z,10.13
2022-10-15T01:20:58.689Z,9.99
2022-10-15T01:23:59.243Z,9.89
2022-10-15T01:26:57.731Z,9.87
2022-10-15T01:29:40.670Z,10.05
2022-10-15T01:32:14.137Z,10.13
2022-10-15T01:34:50.054Z,10.16
2022-10-15T01:37:26.514Z,10.01
2022-10-15T01:40:01.465Z,9.88
2022-10-15T01:42:37.860Z,10.03
2022-10-15T01:45:11.600Z,9.95
2022-10-15T01:48:13.067Z,9.88
2022-10-15T01:50:45.326Z,10.10
2022-10-15T01:53:17.125Z,9.92
2022-10-15T01:55:48.274Z,9.94
2022-10-15T01:58:20.066Z,9.88
2022-10-15T02:00:48.978Z,9.80
2022-10-15T02:03:21.222Z,9.70
2022-10-15T02:05:53.196Z,9.97
2022-10-15T02:08:30.097Z,9.89
2022-10-15T02:11:01.837Z,9.78
2022-10-15T02:13:43.602Z,9.86
2022-10-15T02:16:19.119Z,9.91
2022-10-15T02:18:59.755Z,9.87
2022-10-15T02:21:32.693Z,9.83
2022-10-15T02:24:07.380Z,9.82
2022-10-15T02:26:41.950Z,9.85
2022-10-15T02:29:13.767Z,9.85
2022-10-15T02:31:45.154Z,9.92
2022-10-15T02:34:22.862Z,9.97
2022-10-15T02:36:51.601Z,9.97
2022-10-15T02:39:24.285Z,9.97
2022-10-15T02:41:57.196Z,10.01
2022-10-15T02:44:27.427Z,10.03
2022-10-15T02:46:56.977Z,10.06
2022-10-15T02:49:27.064Z,10.11
2022-10-15T02:51:55.923Z,10.08
2022-10-15T02:54:24.345Z,10.03
2022-10-15T02:56:55.539Z,9.96
2022-10-15T02:59:24.677Z,9.94
2022-10-15T03:01:53.261Z,9.90
2022-10-15T03:04:27.068Z,9.94
2022-10-15T03:06:56.318Z,9.92
2022-10-15T03:09:27.914Z,9.93
2022-10-15T03:11:56.585Z,9.90
2022-10-15T03:14:25.219Z,9.85
2022-10-15T03:16:55.939Z,9.76
2022-10-15T03:19:24.385Z,9.80
2022-10-15T03:21:54.369Z,9.79
2022-10-15T03:24:22.910Z,9.68
2022-10-15T03:26:53.247Z,9.69
2022-10-15T03:29:22.074Z,9.74
2022-10-15T03:31:58.168Z,9.73
2022-10-15T03:34:26.764Z,9.67
2022-10-15T03:36:56.802Z,9.68
2022-10-15T03:39:25.437Z,9.67
2022-10-15T03:42:02.692Z,9.65
2022-10-15T03:44:42.254Z,9.62
2022-10-15T03:47:14.188Z,9.62
2022-10-15T03:49:46.974Z,9.62
2022-10-15T03:52:17.606Z,9.63
2022-10-15T03:54:47.969Z,9.62
2022-10-15T03:57:19.767Z,9.61
2022-10-15T03:59:54.509Z,9.60
2022-10-15T04:02:28.548Z,9.66
2022-10-15T04:04:58.787Z,9.68
2022-10-15T04:07:31.799Z,9.69
2022-10-15T04:10:00.838Z,9.71
2022-10-15T04:12:36.748Z,9.74
2022-10-15T04:15:05.982Z,9.97
2022-10-15T04:17:34.611Z,10.10
2022-10-15T04:20:05.217Z,10.06
2022-10-15T04:22:35.269Z,10.30
2022-10-15T04:25:08.276Z,10.17
2022-10-15T04:27:40.144Z,10.16
2022-10-15T04:30:18.784Z,10.12
2022-10-15T04:32:54.611Z,10.07
2022-10-15T04:35:23.611Z,9.86
2022-10-15T04:38:10.572Z,9.84
2022-10-15T04:41:14.942Z,9.87
2022-10-15T04:44:04.585Z,9.85
2022-10-15T04:46:34.343Z,9.86
2022-10-15T04:49:21.066Z,9.89
2022-10-15T04:51:49.880Z,9.80
2022-10-15T04:54:33.805Z,9.79
2022-10-15T04:57:08.731Z,9.76
2022-10-15T04:59:37.372Z,9.75
2022-10-15T05:02:40.565Z,9.80
2022-10-15T05:05:35.518Z,9.81
2022-10-15T05:08:06.921Z,9.89
2022-10-15T05:10:58.014Z,9.92
2022-10-15T05:13:26.630Z,9.91
2022-10-15T05:16:10.652Z,9.92
2022-10-15T05:18:40.303Z,9.95
2022-10-15T05:21:12.066Z,9.96
2022-10-15T05:23:42.082Z,9.95
2022-10-15T05:26:53.252Z,9.94
2022-10-15T05:29:23.055Z,9.96
2022-10-15T05:31:52.809Z,10.01
2022-10-15T05:34:27.209Z,10.06
2022-10-15T05:37:02.200Z,10.09
2022-10-15T05:39:31.273Z,10.14
2022-10-15T05:42:02.434Z,10.22
2022-10-15T05:44:38.703Z,10.31
2022-10-15T05:47:12.041Z,10.32
2022-10-15T05:49:45.445Z,10.53
2022-10-15T05:52:25.119Z,10.52
2022-10-15T05:55:25.897Z,10.46
2022-10-15T05:57:55.942Z,10.48
2022-10-15T06:00:24.218Z,10.55
2022-10-15T06:05:22.554Z,10.54
2022-10-15T06:07:50.842Z,10.58
2022-10-15T06:10:19.259Z,10.62
2022-10-15T06:12:50.700Z,10.67
2022-10-15T06:15:20.917Z,10.72
2022-10-15T06:17:50.838Z,10.76
2022-10-15T06:20:19.574Z,10.85
2022-10-15T06:22:52.447Z,10.87
2022-10-15T06:25:22.270Z,10.90
2022-10-15T06:27:50.700Z,10.93
2022-10-15T06:30:20.965Z,10.99
2022-10-15T06:32:50.421Z,10.89
2022-10-15T06:35:22.703Z,10.76
2022-10-15T06:37:52.957Z,10.61
2022-10-15T06:40:21.691Z,10.68
2022-10-15T06:42:54.536Z,10.73
2022-10-15T06:45:26.791Z,10.75
2022-10-15T06:47:56.802Z,10.84
2022-10-15T06:50:25.452Z,10.87
2022-10-15T06:53:04.513Z,10.94
2022-10-15T06:55:36.578Z,10.87
2022-10-15T06:58:05.270Z,10.93
2022-10-15T07:03:07.468Z,11.06
2022-10-15T07:05:36.685Z,11.11
2022-10-15T07:08:05.605Z,11.19
2022-10-15T07:10:39.185Z,11.26
2022-10-15T07:13:07.900Z,11.32
2022-10-15T07:15:39.584Z,11.39
2022-10-15T07:18:08.266Z,11.47
2022-10-15T07:20:38.159Z,11.60
2022-10-15T07:23:21.878Z,11.45
2022-10-15T07:25:57.040Z,11.42
2022-10-15T07:28:34.162Z,11.55
2022-10-15T07:31:07.736Z,11.82
2022-10-15T07:33:40.493Z,11.66
2022-10-15T07:36:15.697Z,11.78
2022-10-15T07:38:48.992Z,11.65
2022-10-15T07:41:21.383Z,11.54
2022-10-15T07:43:51.443Z,11.66
2022-10-15T07:46:29.720Z,11.63
2022-10-15T07:49:01.503Z,11.61
2022-10-15T07:51:32.970Z,11.60
2022-10-15T07:54:08.345Z,11.70
2022-10-15T07:56:37.124Z,11.83
2022-10-15T07:59:13.819Z,11.91
2022-10-15T08:01:45.927Z,11.97
2022-10-15T08:04:21.619Z,11.99
2022-10-15T08:07:05.708Z,12.07
2022-10-15T08:09:40.280Z,12.05
2022-10-15T08:12:17.395Z,12.12
2022-10-15T08:14:52.163Z,12.21
2022-10-15T08:17:25.186Z,12.29
2022-10-15T08:20:00.791Z,12.29
2022-10-15T08:22:30.919Z,12.36
2022-10-15T08:24:59.830Z,12.44
2022-10-15T08:27:37.738Z,12.41
2022-10-15T08:30:18.516Z,12.43
2022-10-15T08:33:02.139Z,12.44
2022-10-15T08:35:47.289Z,12.53
2022-10-15T08:38:52.561Z,12.52
2022-10-15T08:41:31.250Z,12.59
2022-10-15T08:44:15.437Z,12.61
2022-10-15T08:46:48.435Z,12.55
2022-10-15T08:49:33.682Z,12.61
2022-10-15T08:52:20.783Z,12.71
2022-10-15T08:54:58.626Z,12.71
2022-10-15T08:57:43.824Z,12.71
2022-10-15T09:00:26.073Z,12.79
2022-10-15T09:03:17.405Z,12.77
2022-10-15T09:06:01.242Z,12.80
2022-10-15T09:08:46.729Z,13.01
2022-10-15T09:11:20.189Z,12.99
2022-10-15T09:13:51.579Z,12.97
2022-10-15T09:16:34.205Z,13.18
2022-10-15T09:19:18.190Z,13.31
2022-10-15T09:21:52.610Z,13.23
2022-10-15T09:25:07.696Z,13.60
2022-10-15T09:27:44.640Z,13.81
2022-10-15T09:30:48.544Z,13.95
2022-10-15T09:33:54.318Z,13.92
2022-10-15T09:36:43.643Z,14.04
2022-10-15T09:39:51.917Z,14.17
2022-10-15T09:42:35.900Z,14.23
2022-10-15T09:45:16.175Z,14.26
2022-10-15T09:47:52.085Z,14.32
2022-10-15T09:50:25.465Z,14.38
2022-10-15T09:53:12.142Z,14.75
2022-10-15T09:56:14.043Z,14.85
2022-10-15T09:58:56.811Z,14.84
2022-10-15T10:04:30.080Z,15.29
2022-10-15T10:07:15.905Z,15.54
2022-10-15T10:10:01.959Z,15.61
2022-10-15T10:12:39.456Z,15.92
2022-10-15T10:15:29.913Z,15.95
2022-10-15T10:18:04.917Z,15.36
2022-10-15T10:20:36.453Z,15.67
2022-10-15T10:23:23.802Z,15.77
2022-10-15T10:25:52.933Z,16.02
2022-10-15T10:28:33.611Z,16.12
2022-10-15T10:31:11.386Z,16.38
2022-10-15T10:33:56.336Z,16.41
2022-10-15T10:36:31.737Z,16.22
2022-10-15T10:39:07.186Z,16.15
2022-10-15T10:42:00.563Z,15.90
2022-10-15T10:44:36.625Z,16.24
2022-10-15T10:47:15.526Z,16.03
2022-10-15T10:49:59.804Z,16.13
2022-10-15T10:52:34.456Z,16.31
2022-10-15T10:55:11.427Z,16.45
2022-10-15T10:57:59.863Z,16.65
2022-10-15T11:00:40.486Z,16.55
2022-10-15T11:03:39.668Z,16.50
2022-10-15T11:06:29.657Z,16.57
2022-10-15T11:09:36.827Z,16.62
2022-10-15T11:12:40.518Z,16.62
2022-10-15T11:15:27.843Z,16.91
2022-10-15T11:21:09.445Z,16.76
2022-10-15T11:24:03.242Z,17.07
2022-10-15T11:27:31.810Z,17.27
2022-10-15T11:30:17.229Z,17.38
2022-10-15T11:33:16.072Z,17.34
2022-10-15T11:36:01.578Z,17.18
2022-10-15T11:38:49.303Z,17.20
2022-10-15T11:41:43.571Z,16.97
2022-10-15T11:44:31.698Z,16.68
2022-10-15T11:47:16.506Z,16.75
2022-10-15T11:50:01.533Z,16.44
2022-10-15T11:52:54.953Z,16.20
2022-10-15T11:55:39.585Z,16.34
2022-10-15T11:58:15.027Z,16.20
2022-10-15T12:00:48.237Z,16.32
2022-10-15T12:03:21.049Z,16.32
2022-10-15T12:05:54.023Z,16.34
2022-10-15T12:08:24.903Z,16.51
2022-10-15T12:11:03.071Z,16.48
2022-10-15T12:13:49.647Z,16.66
2022-10-15T12:16:28.459Z,16.55
2022-10-15T12:19:09.650Z,16.35
2022-10-15T12:21:47.839Z,16.47
2022-10-15T12:24:53.714Z,16.47
2022-10-15T12:27:30.347Z,16.49
2022-10-15T12:30:34.555Z,16.26
2022-10-15T12:33:05.762Z,16.34
2022-10-15T12:35:39.023Z,16.23
2022-10-15T12:38:43.467Z,16.31
2022-10-15T12:41:13.896Z,16.55
2022-10-15T12:43:54.545Z,16.64
2022-10-15T12:46:25.011Z,16.62
2022-10-15T12:48:58.263Z,16.51
2022-10-15T12:51:35.765Z,16.58
2022-10-15T12:54:33.962Z,16.61
2022-10-15T12:57:07.014Z,16.65
2022-10-15T12:59:58.658Z,16.65
2022-10-15T13:03:03.108Z,16.41
2022-10-15T13:05:56.773Z,16.49
2022-10-15T13:08:50.825Z,16.58
2022-10-15T13:11:47.551Z,16.82
2022-10-15T13:14:37.164Z,16.81
2022-10-15T13:17:25.997Z,16.77
2022-10-15T13:20:14.777Z,17.11
2022-10-15T13:23:01.837Z,17.19
2022-10-15T13:25:56.154Z,17.27
2022-10-15T13:28:53.240Z,17.20
2022-10-15T13:31:34.954Z,17.28
2022-10-15T13:34:26.313Z,17.27
2022-10-15T13:37:31.572Z,17.38
2022-10-15T13:40:07.634Z,17.26
2022-10-15T13:43:06.448Z,17.56
2022-10-15T13:45:44.162Z,17.58
2022-10-15T13:48:47.487Z,17.65
2022-10-15T13:51:55.211Z,17.24
2022-10-15T13:54:40.489Z,17.30
2022-10-15T13:57:32.862Z,17.61
2022-10-15T14:00:34.889Z,17.88
2022-10-15T14:03:33.091Z,17.73
2022-10-15T14:06:13.903Z,17.82
2022-10-15T14:08:49.864Z,17.79
2022-10-15T14:11:39.203Z,17.84
2022-10-15T14:14:55.190Z,18.18
2022-10-15T14:17:39.661Z,18.33
2022-10-15T14:20:32.152Z,18.58
2022-10-15T14:23:03.729Z,18.17
2022-10-15T14:25:33.977Z,18.04
2022-10-15T14:28:07.059Z,17.95
2022-10-15T14:30:37.541Z,17.84
2022-10-15T14:33:06.219Z,17.75
2022-10-15T14:35:35.889Z,17.53
2022-10-15T14:38:05.766Z,17.37
2022-10-15T14:40:38.019Z,17.08
2022-10-15T14:43:09.013Z,16.89
2022-10-15T14:45:42.490Z,16.73
2022-10-15T14:48:12.968Z,16.81
2022-10-15T14:50:45.535Z,16.34
2022-10-15T14:53:19.020Z,16.11
2022-10-15T14:55:52.560Z,16.22
2022-10-15T14:58:22.167Z,16.32
2022-10-15T15:00:56.473Z,16.26
2022-10-15T15:03:30.550Z,16.09
2022-10-15T15:05:59.548Z,16.23
2022-10-15T15:08:28.110Z,16.19
2022-10-15T15:11:01.061Z,16.03
2022-10-15T15:13:30.846Z,15.94
2022-10-15T15:15:59.734Z,15.90
2022-10-15T15:18:28.533Z,15.77
2022-10-15T15:20:59.832Z,15.72
2022-10-15T15:23:29.720Z,15.81
2022-10-15T15:25:59.829Z,15.71
2022-10-15T15:28:30.884Z,15.74
2022-10-15T15:31:00.969Z,15.87
2022-10-15T15:33:30.021Z,15.99
2022-10-15T15:36:03.094Z,15.93
2022-10-15T15:38:31.907Z,15.95
2022-10-15T15:41:05.964Z,15.98
2022-10-15T15:43:34.874Z,15.97
2022-10-15T15:46:03.682Z,15.88
2022-10-15T15:48:32.094Z,15.86
2022-10-15T15:51:03.619Z,15.80
2022-10-15T15:53:32.267Z,15.65
2022-10-15T15:56:00.982Z,15.48
2022-10-15T15:58:31.032Z,15.43
2022-10-15T16:00:59.635Z,15.30
2022-10-15T16:03:28.842Z,15.18
2022-10-15T16:05:57.505Z,15.10
2022-10-15T16:08:28.307Z,15.06
2022-10-15T16:10:57.746Z,14.96
2022-10-15T16:13:28.510Z,14.95
2022-10-15T16:15:59.957Z,14.82
2022-10-15T16:18:29.547Z,14.66
2022-10-15T16:20:57.917Z,14.54
2022-10-15T16:23:27.969Z,14.37
2022-10-15T16:25:58.849Z,14.20
2022-10-15T16:28:30.638Z,14.05
2022-10-15T16:31:19.023Z,13.91
2022-10-15T16:33:49.767Z,13.82
2022-10-15T16:36:19.332Z,13.80
2022-10-15T16:38:48.337Z,13.68
2022-10-15T16:41:22.653Z,13.65
2022-10-15T16:43:55.415Z,13.62
2022-10-15T16:46:26.178Z,13.60
2022-10-15T16:48:57.670Z,13.54
2022-10-15T16:51:28.082Z,13.41
2022-10-15T16:53:59.177Z,13.30
2022-10-15T16:56:31.396Z,13.20
2022-10-15T16:59:03.493Z,13.19
2022-10-15T17:01:36.256Z,13.10
2022-10-15T17:04:05.077Z,13.02
2022-10-15T17:06:35.694Z,12.96
2022-10-15T17:09:11.035Z,12.91
2022-10-15T17:11:43.142Z,12.89
2022-10-15T17:14:16.139Z,12.84
2022-10-15T17:16:49.913Z,12.82
2022-10-15T17:19:28.951Z,12.75
2022-10-15T17:22:04.359Z,12.67
2022-10-15T17:24:33.294Z,12.60
2022-10-15T17:27:02.339Z,12.53
2022-10-15T17:29:33.470Z,12.48
2022-10-15T17:32:04.189Z,12.42
2022-10-15T17:34:33.056Z,12.38
2022-10-15T17:37:02.258Z,12.31
2022-10-15T17:39:31.148Z,12.30
2022-10-15T17:41:59.983Z,12.24
2022-10-15T17:44:30.314Z,12.22
2022-10-15T17:47:00.143Z,12.36
2022-10-15T17:49:31.798Z,12.39
2022-10-15T17:52:00.613Z,12.53
2022-10-15T17:54:38.407Z,12.55
2022-10-15T17:57:09.290Z,12.38
2022-10-15T17:59:38.068Z,12.34
2022-10-15T18:02:07.199Z,12.29
2022-10-15T18:04:43.681Z,12.43
2022-10-15T18:07:14.557Z,12.49
2022-10-15T18:09:51.157Z,12.73
2022-10-15T18:12:24.752Z,12.80
2022-10-15T18:14:54.771Z,12.94
2022-10-15T18:17:28.712Z,12.88
2022-10-15T18:20:11.666Z,12.59
2022-10-15T18:22:51.610Z,12.34
2022-10-15T18:25:32.987Z,12.22
2022-10-15T18:28:14.552Z,12.18
2022-10-15T18:30:49.623Z,12.16
2022-10-15T18:33:39.252Z,12.09
2022-10-15T18:36:25.108Z,12.06
2022-10-15T18:38:57.242Z,11.99
2022-10-15T18:41:28.843Z,12.02
2022-10-15T18:44:04.170Z,12.00
2022-10-15T18:46:36.190Z,12.14
2022-10-15T18:49:08.816Z,12.33
2022-10-15T18:51:42.235Z,12.07
2022-10-15T18:54:13.894Z,12.04
2022-10-15T18:56:46.484Z,12.09
2022-10-15T18:59:22.040Z,12.04
2022-10-15T19:01:53.382Z,12.04
2022-10-15T19:04:24.313Z,12.16
2022-10-15T19:07:04.427Z,12.06
2022-10-15T19:09:48.069Z,12.06
2022-10-15T19:12:24.666Z,12.09
2022-10-15T19:14:56.985Z,12.07
2022-10-15T19:17:25.976Z,12.02
2022-10-15T19:19:56.419Z,11.99
2022-10-15T19:22:34.875Z,12.07
2022-10-15T19:25:12.391Z,12.20
2022-10-15T19:27:42.699Z,12.03
2022-10-15T19:30:17.031Z,12.01
2022-10-15T19:32:50.904Z,11.90
2022-10-15T19:35:23.610Z,12.16
2022-10-15T19:38:06.886Z,12.16
2022-10-15T19:40:45.875Z,12.08
2022-10-15T19:43:22.222Z,12.06
2022-10-15T19:45:55.655Z,12.12
2022-10-15T19:48:25.342Z,12.13
2022-10-15T19:50:56.448Z,12.21
2022-10-15T19:53:27.132Z,12.14
2022-10-15T19:56:02.546Z,12.02
2022-10-15T19:58:31.761Z,11.94
2022-10-15T20:01:00.824Z,11.96
2022-10-15T20:03:32.457Z,11.95
2022-10-15T20:06:10.272Z,11.87
2022-10-15T20:08:43.146Z,11.96
2022-10-15T20:11:12.758Z,12.19
2022-10-15T20:13:41.518Z,12.14
2022-10-15T20:16:11.143Z,11.99
2022-10-15T20:18:39.855Z,11.96
2022-10-15T20:21:11.582Z,11.82
2022-10-15T20:23:43.280Z,11.69
2022-10-15T20:26:16.018Z,11.62
2022-10-15T20:28:46.685Z,11.65
2022-10-15T20:31:17.453Z,11.70
2022-10-15T20:33:46.317Z,11.57
2022-10-15T20:36:21.201Z,11.41
2022-10-15T20:38:55.681Z,11.33
2022-10-15T20:41:24.428Z,11.28
2022-10-15T20:43:55.105Z,11.25
2022-10-15T20:46:26.569Z,11.24
2022-10-15T20:48:55.953Z,11.21
2022-10-15T20:51:28.370Z,11.32
2022-10-15T20:53:59.255Z,11.32
2022-10-15T20:56:30.357Z,11.32
2022-10-15T20:58:58.914Z,11.22
2022-10-15T21:01:27.347Z,11.25
2022-10-15T21:03:55.814Z,11.16
2022-10-15T21:06:24.509Z,11.17
2022-10-15T21:08:55.999Z,11.10
2022-10-15T21:11:25.816Z,11.13
2022-10-15T21:13:54.224Z,11.02
2022-10-15T21:16:25.885Z,10.99
2022-10-15T21:18:56.849Z,10.98
2022-10-15T21:21:25.419Z,10.95
2022-10-15T21:23:53.713Z,11.04
2022-10-15T21:26:22.420Z,11.07
2022-10-15T21:28:56.618Z,11.12
2022-10-15T21:31:25.288Z,11.18
2022-10-15T21:33:54.013Z,11.28
2022-10-15T21:36:26.218Z,11.29
2022-10-15T21:38:56.426Z,11.21
2022-10-15T21:41:26.261Z,11.29
2022-10-15T21:43:56.173Z,11.33
2022-10-15T21:46:25.168Z,11.51
2022-10-15T21:48:56.073Z,11.53
2022-10-15T21:51:26.979Z,11.57
2022-10-15T21:54:01.218Z,11.49
2022-10-15T21:56:30.232Z,11.36
2022-10-15T21:59:01.141Z,11.25
2022-10-15T22:01:31.712Z,11.25
2022-10-15T22:04:01.331Z,11.27
2022-10-15T22:06:29.885Z,11.35
2022-10-15T22:09:05.053Z,11.41
2022-10-15T22:11:38.858Z,11.51
2022-10-15T22:14:12.758Z,11.27
2022-10-15T22:16:42.829Z,11.15
2022-10-15T22:19:12.724Z,11.09
2022-10-15T22:21:41.173Z,10.95
2022-10-15T22:24:14.715Z,10.90
2022-10-15T22:26:44.999Z,10.92
2022-10-15T22:29:20.114Z,10.85
2022-10-15T22:31:50.876Z,10.89
2022-10-15T22:34:20.491Z,10.80
2022-10-15T22:36:49.331Z,10.80
2022-10-15T22:39:18.797Z,10.80
2022-10-15T22:41:48.657Z,10.73
2022-10-15T22:44:19.860Z,10.64
2022-10-15T22:46:51.733Z,10.55
2022-10-15T22:49:21.500Z,10.51
2022-10-15T22:51:50.082Z,10.51
2022-10-15T22:54:19.893Z,10.49
2022-10-15T22:56:50.424Z,10.52
2022-10-15T22:59:20.553Z,10.52
2022-10-15T23:01:48.939Z,10.44
2022-10-15T23:04:17.612Z,10.45
2022-10-15T23:06:46.003Z,10.40
2022-10-15T23:09:18.022Z,10.34
2022-10-15T23:11:47.173Z,10.35
2022-10-15T23:14:17.254Z,10.29
2022-10-15T23:16:48.224Z,10.27
2022-10-15T23:19:18.217Z,10.22
2022-10-15T23:21:48.415Z,10.20
2022-10-15T23:24:18.147Z,10.12
2022-10-15T23:26:46.473Z,10.07
2022-10-15T23:29:16.307Z,10.07
2022-10-15T23:31:46.292Z,10.06
2022-10-15T23:34:16.410Z,10.15
2022-10-15T23:36:44.849Z,10.25
2022-10-15T23:39:15.368Z,10.46
2022-10-15T23:41:43.751Z,10.58
2022-10-15T23:44:12.898Z,10.69
2022-10-15T23:46:41.462Z,10.45
2022-10-15T23:49:11.198Z,10.64
2022-10-15T23:51:39.935Z,10.44
2022-10-15T23:54:13.950Z,10.33
2022-10-15T23:56:42.363Z,10.19
2022-10-15T23:59:10.709Z,10.03
